createdAt,value
2023-03-17T00:00:32.859Z,23.48
2023-03-17T00:02:35.200Z,25.10
2023-03-17T00:04:38.248Z,23.50
2023-03-17T00:06:41.852Z,22.92
2023-03-17T00:08:46.811Z,24.25
2023-03-17T00:10:50.200Z,25.65
2023-03-17T00:12:55.517Z,24.63
2023-03-17T00:14:58.044Z,25.90
2023-03-17T00:17:00.833Z,27.88
2023-03-17T00:19:05.476Z,29.00
2023-03-17T00:21:13.291Z,28.63
2023-03-17T00:23:22.966Z,25.30
2023-03-17T00:25:30.423Z,26.42
2023-03-17T00:27:33.318Z,21.83
2023-03-17T00:29:35.675Z,22.02
2023-03-17T00:31:39.971Z,24.17
2023-03-17T00:33:45.643Z,23.05
2023-03-17T00:35:48.453Z,24.50
2023-03-17T00:37:53.006Z,28.50
2023-03-17T00:39:56.466Z,25.75
2023-03-17T00:42:01.141Z,28.67
2023-03-17T00:44:03.801Z,27.92
2023-03-17T00:46:36.157Z,30.20
2023-03-17T00:48:39.175Z,28.98
2023-03-17T00:50:43.004Z,26.95
2023-03-17T00:52:46.880Z,28.63
2023-03-17T00:54:49.174Z,30.75
2023-03-17T00:56:52.838Z,27.77
2023-03-17T00:58:55.068Z,29.20
2023-03-17T01:00:57.967Z,26.17
2023-03-17T01:03:00.608Z,26.67
2023-03-17T01:05:06.648Z,29.30
2023-03-17T01:07:12.339Z,28.95
2023-03-17T01:09:16.500Z,25.90
2023-03-17T01:11:20.597Z,24.23
2023-03-17T01:13:24.072Z,28.17
2023-03-17T01:15:32.115Z,29.63
2023-03-17T01:17:34.250Z,28.15
2023-03-17T01:19:37.782Z,31.08
2023-03-17T01:21:41.089Z,28.92
2023-03-17T01:23:43.997Z,29.77
2023-03-17T01:25:46.593Z,31.02
2023-03-17T01:27:49.636Z,32.45
2023-03-17T01:29:55.560Z,28.42
2023-03-17T01:31:58.300Z,30.88
2023-03-17T01:34:01.416Z,31.50
2023-03-17T01:36:04.538Z,33.53
2023-03-17T01:38:07.329Z,32.03
2023-03-17T01:40:15.415Z,30.67
2023-03-17T01:42:17.890Z,33.17
2023-03-17T01:44:20.244Z,35.15
2023-03-17T01:46:32.787Z,34.10
2023-03-17T01:48:39.503Z,31.23
2023-03-17T01:50:42.874Z,32.53
2023-03-17T01:52:46.023Z,35.90
2023-03-17T01:55:03.795Z,33.83
2023-03-17T01:57:15.197Z,39.08
2023-03-17T01:59:24.089Z,35.17
2023-03-17T02:01:32.323Z,36.28
2023-03-17T02:03:34.982Z,39.80
2023-03-17T02:05:39.274Z,37.60
2023-03-17T02:07:42.353Z,38.58
2023-03-17T02:09:44.977Z,40.45
2023-03-17T02:11:47.201Z,39.28
2023-03-17T02:13:49.799Z,39.42
2023-03-17T02:15:53.648Z,37.05
2023-03-17T02:18:00.387Z,37.92
2023-03-17T02:20:18.661Z,39.88
2023-03-17T02:22:24.612Z,38.78
2023-03-17T02:24:26.794Z,39.00
2023-03-17T02:26:33.682Z,40.25
2023-03-17T02:28:36.448Z,38.08
2023-03-17T02:30:39.036Z,40.25
2023-03-17T02:32:41.448Z,39.60
2023-03-17T02:34:45.490Z,40.50
2023-03-17T02:36:48.180Z,36.33
2023-03-17T02:38:52.128Z,39.83
2023-03-17T02:40:54.909Z,38.75
2023-03-17T02:42:57.876Z,39.83
2023-03-17T02:45:03.587Z,39.88
2023-03-17T02:47:07.614Z,40.58
2023-03-17T02:49:12.207Z,42.17
2023-03-17T02:51:14.647Z,40.28
2023-03-17T02:53:17.123Z,42.42
2023-03-17T02:55:19.983Z,42.67
2023-03-17T02:57:22.774Z,39.92
2023-03-17T02:59:25.382Z,40.00
2023-03-17T03:01:27.886Z,39.08
2023-03-17T03:03:30.938Z,40.17
2023-03-17T03:05:33.764Z,42.30
2023-03-17T03:07:36.714Z,39.20
2023-03-17T03:09:39.232Z,38.13
2023-03-17T03:11:42.897Z,37.72
2023-03-17T03:13:45.711Z,37.78
2023-03-17T03:15:48.336Z,41.08
2023-03-17T03:17:51.443Z,42.13
2023-03-17T03:19:54.136Z,38.38
2023-03-17T03:21:56.438Z,37.50
2023-03-17T03:23:58.616Z,37.70
2023-03-17T03:26:01.335Z,38.50
2023-03-17T03:28:05.359Z,38.67
2023-03-17T03:30:08.833Z,36.95
2023-03-17T03:32:11.543Z,38.33
2023-03-17T03:34:14.003Z,37.75
2023-03-17T03:36:16.484Z,38.30
2023-03-17T03:38:19.600Z,37.00
2023-03-17T03:40:22.268Z,37.85
2023-03-17T03:42:24.588Z,34.72
2023-03-17T03:44:26.873Z,37.60
2023-03-17T03:46:29.907Z,35.53
2023-03-17T03:48:32.899Z,36.55
2023-03-17T03:50:35.680Z,36.72
2023-03-17T03:52:38.050Z,34.42
2023-03-17T03:54:40.394Z,33.72
2023-03-17T03:56:42.988Z,35.92
2023-03-17T03:58:45.500Z,35.03
2023-03-17T04:00:49.090Z,32.58
2023-03-17T04:02:51.381Z,32.78
2023-03-17T04:04:54.746Z,33.30
2023-03-17T04:06:57.408Z,35.83
2023-03-17T04:08:59.638Z,33.83
2023-03-17T04:11:02.190Z,32.97
2023-03-17T04:13:04.471Z,34.85
2023-03-17T04:15:09.493Z,33.67
2023-03-17T04:17:13.360Z,35.97
2023-03-17T04:19:15.746Z,35.42
2023-03-17T04:21:19.219Z,35.10
2023-03-17T04:23:21.403Z,35.38
2023-03-17T04:25:23.697Z,34.35
2023-03-17T04:27:26.085Z,37.10
2023-03-17T04:29:28.521Z,37.63
2023-03-17T04:31:31.010Z,34.17
2023-03-17T04:33:33.368Z,35.00
2023-03-17T04:35:36.025Z,36.03
2023-03-17T04:37:39.425Z,36.75
2023-03-17T04:39:42.303Z,34.72
2023-03-17T04:41:45.515Z,33.03
2023-03-17T04:43:48.163Z,35.83
2023-03-17T04:45:50.935Z,33.75
2023-03-17T04:47:53.209Z,34.08
2023-03-17T04:49:56.056Z,34.97
2023-03-17T04:51:58.650Z,35.63
2023-03-17T04:54:01.804Z,36.05
2023-03-17T04:56:04.587Z,33.55
2023-03-17T04:58:07.315Z,34.75
2023-03-17T05:00:10.369Z,37.10
2023-03-17T05:02:13.080Z,35.10
2023-03-17T05:04:28.852Z,35.75
2023-03-17T05:06:33.693Z,34.65
2023-03-17T05:08:36.084Z,34.50
2023-03-17T05:10:38.208Z,35.22
2023-03-17T05:12:41.204Z,35.50
2023-03-17T05:14:43.518Z,35.72
2023-03-17T05:16:48.250Z,36.72
2023-03-17T05:18:51.216Z,34.42
2023-03-17T05:20:54.390Z,32.63
2023-03-17T05:22:56.930Z,36.30
2023-03-17T05:24:59.156Z,33.75
2023-03-17T05:27:01.465Z,34.30
2023-03-17T05:29:04.278Z,33.80
2023-03-17T05:31:09.475Z,33.53
2023-03-17T05:33:13.062Z,34.15
2023-03-17T05:35:16.135Z,34.08
2023-03-17T05:37:18.507Z,33.47
2023-03-17T05:39:21.682Z,33.65
2023-03-17T05:41:24.085Z,32.55
2023-03-17T05:43:26.642Z,30.98
2023-03-17T05:45:29.928Z,32.50
2023-03-17T05:47:33.811Z,33.28
2023-03-17T05:49:36.553Z,32.13
2023-03-17T05:51:39.019Z,33.58
2023-03-17T05:53:42.057Z,32.35
2023-03-17T05:55:44.701Z,34.03
2023-03-17T05:57:47.396Z,31.15
2023-03-17T05:59:51.057Z,31.75
2023-03-17T06:01:53.851Z,31.38
2023-03-17T06:03:56.420Z,31.42
2023-03-17T06:05:59.181Z,30.77
2023-03-17T06:08:02.418Z,27.02
2023-03-17T06:10:06.903Z,29.27
2023-03-17T06:12:09.673Z,26.52
2023-03-17T06:14:12.911Z,29.33
2023-03-17T06:16:15.394Z,26.98
2023-03-17T06:18:19.951Z,26.92
2023-03-17T06:20:22.400Z,26.80
2023-03-17T06:22:25.030Z,26.15
2023-03-17T06:24:27.377Z,26.65
2023-03-17T06:26:30.232Z,24.15
2023-03-17T06:28:32.744Z,24.38
2023-03-17T06:30:38.745Z,23.98
2023-03-17T06:34:44.925Z,23.55
2023-03-17T06:36:48.631Z,24.92
2023-03-17T06:38:52.627Z,24.80
2023-03-17T06:40:55.162Z,22.98
2023-03-17T06:42:57.386Z,25.13
2023-03-17T06:44:59.803Z,24.73
2023-03-17T06:47:03.182Z,24.50
2023-03-17T06:49:05.796Z,25.00
2023-03-17T06:51:08.310Z,22.85
2023-03-17T06:53:12.042Z,22.27
2023-03-17T06:55:15.692Z,24.05
2023-03-17T06:57:18.079Z,22.80
2023-03-17T06:59:23.357Z,25.45
2023-03-17T07:01:29.280Z,25.02
2023-03-17T07:03:34.093Z,22.70
2023-03-17T07:05:36.319Z,21.60
2023-03-17T07:07:39.794Z,21.92
2023-03-17T07:09:42.915Z,23.95
2023-03-17T07:11:45.577Z,23.00
2023-03-17T07:13:47.893Z,22.75
2023-03-17T07:15:51.096Z,22.77
2023-03-17T07:17:54.836Z,23.20
2023-03-17T07:19:57.467Z,23.25
2023-03-17T07:22:00.274Z,21.63
2023-03-17T07:24:02.854Z,21.23
2023-03-17T07:26:05.670Z,21.63
2023-03-17T07:28:08.893Z,24.25
2023-03-17T07:30:13.396Z,23.40
2023-03-17T07:32:16.180Z,20.98
2023-03-17T07:34:18.722Z,20.38
2023-03-17T07:36:21.211Z,22.70
2023-03-17T07:38:23.739Z,21.55
2023-03-17T07:40:27.162Z,21.05
2023-03-17T07:42:30.300Z,19.05
2023-03-17T07:44:33.477Z,19.40
2023-03-17T07:46:36.270Z,18.60
2023-03-17T07:48:42.731Z,17.55
2023-03-17T07:50:45.793Z,16.10
2023-03-17T07:52:48.152Z,17.05
2023-03-17T07:54:52.461Z,15.80
2023-03-17T07:56:55.703Z,14.60
2023-03-17T07:58:59.380Z,15.68
2023-03-17T08:01:01.870Z,15.80
2023-03-17T08:03:10.413Z,13.80
2023-03-17T08:05:14.567Z,15.10
2023-03-17T08:07:16.906Z,15.27
2023-03-17T08:09:19.866Z,14.65
2023-03-17T08:11:23.608Z,14.75
2023-03-17T08:13:26.655Z,12.27
2023-03-17T08:15:31.071Z,12.23
2023-03-17T08:17:34.968Z,8.63
2023-03-17T08:19:37.562Z,10.27
2023-03-17T08:21:40.719Z,10.18
2023-03-17T08:23:43.419Z,9.38
2023-03-17T08:25:47.171Z,9.30
2023-03-17T08:27:49.741Z,8.30
2023-03-17T08:29:52.224Z,8.38
2023-03-17T08:31:54.770Z,6.93
2023-03-17T08:33:58.208Z,8.20
2023-03-17T08:36:00.767Z,7.55
2023-03-17T08:38:04.765Z,7.50
2023-03-17T08:40:10.430Z,8.23
2023-03-17T08:42:12.979Z,6.65
2023-03-17T08:44:15.982Z,7.10
2023-03-17T08:46:27.633Z,6.50
2023-03-17T08:48:30.762Z,6.35
2023-03-17T08:50:33.879Z,6.15
2023-03-17T08:52:37.263Z,6.95
2023-03-17T08:54:39.703Z,6.65
2023-03-17T08:56:42.750Z,7.97
2023-03-17T08:58:45.541Z,6.68
2023-03-17T09:00:48.798Z,6.30
2023-03-17T09:02:51.566Z,5.70
2023-03-17T09:04:54.874Z,6.45
2023-03-17T09:07:05.781Z,6.93
2023-03-17T09:09:10.070Z,6.38
2023-03-17T09:11:16.897Z,6.60
2023-03-17T09:13:20.142Z,6.50
2023-03-17T09:15:22.955Z,6.50
2023-03-17T09:17:25.624Z,6.25
2023-03-17T09:19:28.287Z,7.03
2023-03-17T09:21:31.168Z,7.15
2023-03-17T09:23:34.156Z,5.85
2023-03-17T09:25:38.619Z,6.63
2023-03-17T09:27:41.004Z,7.00
2023-03-17T09:29:43.752Z,6.70
2023-03-17T09:31:47.894Z,6.68
2023-03-17T09:33:50.325Z,6.50
2023-03-17T09:35:53.158Z,6.85
2023-03-17T09:37:56.041Z,6.25
2023-03-17T09:39:58.835Z,7.43
2023-03-17T09:42:19.811Z,6.68
2023-03-17T09:44:34.077Z,6.05
2023-03-17T09:47:05.076Z,6.35
2023-03-17T09:49:42.691Z,5.70
2023-03-17T09:51:47.024Z,6.88
2023-03-17T09:54:05.101Z,6.35
2023-03-17T09:56:16.432Z,6.90
2023-03-17T09:58:26.381Z,6.53
2023-03-17T10:00:30.179Z,6.68
2023-03-17T10:02:36.000Z,6.53
2023-03-17T10:04:38.832Z,6.90
2023-03-17T10:06:47.149Z,6.97
2023-03-17T10:08:59.670Z,6.05
2023-03-17T10:11:18.353Z,6.95
2023-03-17T10:13:35.982Z,5.82
2023-03-17T10:15:51.258Z,6.82
2023-03-17T10:17:54.061Z,6.70
2023-03-17T10:20:22.152Z,6.60
2023-03-17T10:22:43.569Z,6.88
2023-03-17T10:24:51.093Z,7.03
2023-03-17T10:26:58.206Z,7.65
2023-03-17T10:29:04.708Z,6.70
2023-03-17T10:31:19.346Z,6.75
2023-03-17T10:33:22.862Z,6.88
2023-03-17T10:35:26.139Z,6.38
2023-03-17T10:37:30.035Z,6.90
2023-03-17T10:39:42.353Z,5.40
2023-03-17T10:42:09.847Z,5.93
2023-03-17T10:44:28.353Z,6.35
2023-03-17T10:46:31.649Z,6.90
2023-03-17T10:48:38.956Z,5.95
2023-03-17T10:50:41.607Z,6.43
2023-03-17T10:52:47.753Z,5.85
2023-03-17T10:54:53.804Z,5.85
2023-03-17T10:57:06.692Z,6.47
2023-03-17T10:59:26.462Z,5.18
2023-03-17T11:01:30.837Z,5.68
2023-03-17T11:03:38.185Z,6.00
2023-03-17T11:05:40.711Z,5.93
2023-03-17T11:07:43.473Z,5.55
2023-03-17T11:09:51.140Z,5.05
2023-03-17T11:12:19.427Z,5.28
2023-03-17T11:14:28.637Z,4.88
2023-03-17T11:16:35.695Z,5.20
2023-03-17T11:18:40.777Z,5.10
2023-03-17T11:20:54.582Z,5.55
2023-03-17T11:23:02.605Z,4.93
2023-03-17T11:25:16.457Z,3.97
2023-03-17T11:27:28.218Z,3.85
2023-03-17T11:29:48.476Z,3.72
2023-03-17T11:32:25.553Z,4.10
2023-03-17T11:34:57.137Z,3.85
2023-03-17T11:37:26.636Z,3.55
2023-03-17T11:39:45.028Z,3.13
2023-03-17T11:42:15.783Z,3.17
2023-03-17T11:46:50.814Z,3.47
2023-03-17T11:49:11.465Z,3.40
2023-03-17T11:51:36.502Z,3.60
2023-03-17T11:53:53.955Z,3.85
2023-03-17T11:56:15.666Z,4.00
2023-03-17T11:58:41.599Z,3.85
2023-03-17T12:00:53.466Z,3.70
2023-03-17T12:03:10.493Z,3.90
2023-03-17T12:05:27.698Z,4.47
2023-03-17T12:07:35.975Z,3.72
2023-03-17T12:09:51.331Z,4.28
2023-03-17T12:11:56.148Z,3.85
2023-03-17T12:14:23.137Z,3.40
2023-03-17T12:16:30.090Z,3.65
2023-03-17T12:20:59.129Z,3.17
2023-03-17T12:23:13.643Z,4.88
2023-03-17T12:25:26.391Z,4.00
2023-03-17T12:27:48.973Z,3.33
2023-03-17T12:30:00.897Z,4.10
2023-03-17T12:32:16.552Z,3.60
2023-03-17T12:34:20.633Z,3.42
2023-03-17T12:36:24.330Z,3.92
2023-03-17T12:38:37.140Z,4.32
2023-03-17T12:40:48.701Z,3.85
2023-03-17T12:42:54.858Z,3.50
2023-03-17T12:45:06.117Z,3.95
2023-03-17T12:47:33.016Z,3.40
2023-03-17T12:49:54.177Z,3.92
2023-03-17T12:52:13.851Z,3.22
2023-03-17T12:54:26.888Z,3.88
2023-03-17T12:56:31.479Z,3.63
2023-03-17T12:58:47.327Z,3.65
2023-03-17T13:01:02.456Z,4.75
2023-03-17T13:03:28.137Z,3.92
2023-03-17T13:05:33.580Z,3.70
2023-03-17T13:07:51.688Z,3.75
2023-03-17T13:09:54.154Z,3.70
2023-03-17T13:11:57.548Z,4.32
2023-03-17T13:14:29.758Z,5.03
2023-03-17T13:16:34.009Z,4.25
2023-03-17T13:18:37.446Z,4.90
2023-03-17T13:20:52.399Z,4.47
2023-03-17T13:23:02.477Z,3.53
2023-03-17T13:25:31.004Z,4.40
2023-03-17T13:27:33.472Z,3.83
2023-03-17T13:29:36.321Z,3.55
2023-03-17T13:31:39.089Z,3.97
2023-03-17T13:33:54.236Z,3.72
2023-03-17T13:36:32.855Z,3.90
2023-03-17T13:38:35.136Z,3.67
2023-03-17T13:40:57.810Z,3.40
2023-03-17T13:43:24.763Z,4.50
2023-03-17T13:45:40.412Z,3.40
2023-03-17T13:47:44.685Z,3.88
2023-03-17T13:49:51.373Z,4.95
2023-03-17T13:52:04.707Z,4.03
2023-03-17T13:54:20.141Z,4.13
2023-03-17T13:56:25.524Z,3.80
2023-03-17T13:58:33.526Z,3.55
2023-03-17T14:00:39.283Z,5.28
2023-03-17T14:02:45.050Z,3.17
2023-03-17T14:05:00.764Z,3.33
2023-03-17T14:07:14.269Z,3.60
2023-03-17T14:09:42.743Z,4.03
2023-03-17T14:11:48.300Z,3.80
2023-03-17T14:14:15.178Z,3.70
2023-03-17T14:16:30.373Z,3.70
2023-03-17T14:18:36.821Z,3.97
2023-03-17T14:20:39.364Z,4.05
2023-03-17T14:22:45.583Z,3.60
2023-03-17T14:24:53.392Z,3.97
2023-03-17T14:26:55.990Z,4.47
2023-03-17T14:29:04.982Z,4.32
2023-03-17T14:31:08.330Z,3.70
2023-03-17T14:33:25.348Z,3.75
2023-03-17T14:35:36.373Z,3.80
2023-03-17T14:37:38.658Z,3.45
2023-03-17T14:39:50.552Z,3.42
2023-03-17T14:42:05.108Z,3.08
2023-03-17T14:44:10.208Z,4.07
2023-03-17T14:46:28.380Z,3.95
2023-03-17T14:48:33.889Z,3.85
2023-03-17T14:50:36.434Z,4.63
2023-03-17T14:52:41.495Z,4.38
2023-03-17T14:54:44.596Z,4.15
2023-03-17T14:56:58.147Z,4.22
2023-03-17T14:59:37.710Z,5.47
2023-03-17T15:01:50.170Z,4.75
2023-03-17T15:03:59.999Z,4.03
2023-03-17T15:06:30.418Z,4.70
2023-03-17T15:08:46.463Z,3.88
2023-03-17T15:10:49.488Z,4.00
2023-03-17T15:13:12.248Z,4.72
2023-03-17T15:15:29.353Z,4.35
2023-03-17T15:17:35.964Z,3.58
2023-03-17T15:23:57.125Z,4.03
2023-03-17T15:30:19.084Z,4.10
2023-03-17T15:36:40.205Z,4.45
2023-03-17T15:43:01.061Z,4.53
2023-03-17T15:49:26.468Z,5.43
2023-03-17T15:55:48.743Z,4.55
2023-03-17T16:02:28.873Z,4.95
2023-03-17T16:13:11.816Z,5.45
2023-03-17T16:19:34.099Z,6.47
2023-03-17T16:21:37.781Z,6.00
2023-03-17T16:23:41.230Z,6.50
2023-03-17T16:25:44.342Z,6.72
2023-03-17T16:27:48.783Z,6.25
2023-03-17T16:29:51.550Z,6.47
2023-03-17T16:31:53.917Z,6.35
2023-03-17T16:33:57.105Z,7.32
2023-03-17T16:36:01.230Z,6.95
2023-03-17T16:38:03.789Z,7.95
2023-03-17T16:40:36.674Z,6.35
2023-03-17T16:42:41.960Z,7.55
2023-03-17T16:44:44.326Z,7.57
2023-03-17T16:46:47.678Z,7.57
2023-03-17T16:48:51.186Z,7.07
2023-03-17T16:50:54.066Z,7.07
2023-03-17T16:52:57.186Z,8.23
2023-03-17T16:54:59.941Z,7.43
2023-03-17T16:57:03.058Z,7.45
2023-03-17T16:59:07.958Z,8.38
2023-03-17T17:01:15.408Z,9.98
2023-03-17T17:03:18.744Z,10.20
2023-03-17T17:05:27.658Z,10.25
2023-03-17T17:07:30.091Z,14.73
2023-03-17T17:09:32.789Z,20.13
2023-03-17T17:11:35.541Z,18.98
2023-03-17T17:13:39.480Z,16.75
2023-03-17T17:15:43.118Z,15.02
2023-03-17T17:17:52.296Z,15.15
2023-03-17T17:19:54.850Z,10.05
2023-03-17T17:43:26.630Z,12.38
2023-03-17T17:45:54.659Z,12.75
2023-03-17T18:21:19.146Z,17.40
2023-03-17T18:23:28.734Z,19.70
2023-03-17T18:58:31.064Z,15.40
2023-03-17T19:00:44.228Z,15.43
2023-03-17T19:04:50.602Z,15.45
2023-03-17T19:28:48.155Z,10.10
2023-03-17T19:30:59.803Z,9.15
2023-03-17T19:33:02.406Z,9.43
2023-03-17T19:35:56.407Z,8.98
2023-03-17T19:38:08.680Z,7.40
2023-03-17T19:50:15.090Z,8.55
2023-03-17T19:52:17.668Z,9.48
2023-03-17T19:54:23.666Z,8.80
2023-03-17T19:56:28.331Z,9.57
2023-03-17T19:58:30.917Z,9.65
2023-03-17T20:00:34.381Z,9.27
2023-03-17T20:02:36.810Z,9.10
2023-03-17T20:04:40.051Z,10.77
2023-03-17T20:06:42.378Z,10.55
2023-03-17T20:08:45.301Z,9.68
2023-03-17T20:10:52.314Z,9.85
2023-03-17T20:12:54.771Z,10.15
2023-03-17T20:14:57.371Z,9.63
2023-03-17T20:16:59.810Z,10.98
2023-03-17T20:19:04.085Z,9.07
2023-03-17T20:21:11.436Z,9.52
2023-03-17T20:23:15.179Z,9.82
2023-03-17T20:25:17.612Z,10.23
2023-03-17T20:27:20.404Z,9.80
2023-03-17T20:29:23.294Z,9.80
2023-03-17T20:31:26.109Z,10.68
2023-03-17T20:33:29.317Z,10.27
2023-03-17T20:35:33.020Z,9.75
2023-03-17T20:37:36.228Z,9.32
2023-03-17T20:39:38.919Z,7.20
2023-03-17T20:41:42.329Z,8.35
2023-03-17T20:43:47.293Z,7.43
2023-03-17T20:45:51.360Z,8.65
2023-03-17T20:47:54.898Z,8.25
2023-03-17T20:49:59.213Z,8.88
2023-03-17T20:52:02.354Z,8.93
2023-03-17T20:54:05.917Z,9.40
2023-03-17T20:56:10.028Z,9.50
2023-03-17T20:58:13.492Z,9.82
2023-03-17T21:00:20.432Z,9.27
2023-03-17T21:02:23.837Z,9.10
2023-03-17T21:04:26.693Z,8.63
2023-03-17T21:06:29.615Z,9.40
2023-03-17T21:08:32.471Z,9.60
2023-03-17T21:10:36.187Z,9.10
2023-03-17T21:12:38.849Z,9.25
2023-03-17T21:14:41.617Z,8.85
2023-03-17T21:16:45.694Z,8.38
2023-03-17T21:18:48.745Z,8.93
2023-03-17T21:20:51.157Z,9.38
2023-03-17T21:22:53.505Z,8.80
2023-03-17T21:24:55.837Z,8.90
2023-03-17T21:27:03.617Z,9.18
2023-03-17T21:29:06.148Z,7.38
2023-03-17T21:31:09.938Z,9.23
2023-03-17T21:33:12.246Z,8.10
2023-03-17T21:35:14.860Z,8.27
2023-03-17T21:37:17.620Z,7.97
2023-03-17T21:39:21.665Z,7.90
2023-03-17T21:41:36.149Z,8.02
2023-03-17T21:43:38.666Z,8.85
2023-03-17T21:45:42.347Z,9.70
2023-03-17T21:47:45.017Z,8.82
2023-03-17T21:49:47.596Z,8.77
2023-03-17T21:51:49.840Z,7.80
2023-03-17T21:53:53.296Z,7.43
2023-03-17T21:55:55.757Z,8.10
2023-03-17T21:57:59.285Z,7.43
2023-03-17T22:00:02.402Z,8.98
2023-03-17T22:04:19.421Z,8.32
2023-03-17T22:06:22.827Z,9.68
2023-03-17T22:08:26.853Z,9.77
2023-03-17T22:10:29.575Z,8.27
2023-03-17T22:12:31.878Z,9.23
2023-03-17T22:14:35.864Z,8.95
2023-03-17T22:16:38.163Z,8.88
2023-03-17T22:18:40.871Z,8.50
2023-03-17T22:20:45.128Z,7.97
2023-03-17T22:22:47.327Z,8.07
2023-03-17T22:24:49.897Z,8.52
2023-03-17T22:26:52.752Z,8.65
2023-03-17T22:28:55.702Z,8.38
2023-03-17T22:30:58.128Z,6.72
2023-03-17T22:33:01.320Z,8.50
2023-03-17T22:35:04.498Z,7.13
2023-03-17T22:37:08.112Z,7.68
2023-03-17T22:39:11.170Z,7.68
2023-03-17T22:41:17.693Z,10.15
2023-03-17T22:43:20.367Z,10.88
2023-03-17T22:45:23.170Z,11.20
2023-03-17T22:47:25.810Z,9.85
2023-03-17T22:49:28.623Z,11.40
2023-03-17T22:51:30.875Z,12.38
2023-03-17T22:53:35.553Z,11.85
2023-03-17T22:55:38.177Z,12.65
2023-03-17T22:57:41.090Z,11.70
2023-03-17T22:59:43.432Z,12.00
2023-03-17T23:01:46.224Z,10.40
2023-03-17T23:03:48.697Z,10.63
2023-03-17T23:05:53.633Z,11.07
2023-03-17T23:07:56.186Z,11.40
2023-03-17T23:09:59.119Z,13.40
2023-03-17T23:12:01.857Z,11.02
2023-03-17T23:14:04.927Z,10.57
2023-03-17T23:16:09.386Z,11.60
2023-03-17T23:18:11.746Z,12.07
2023-03-17T23:20:15.571Z,10.70
2023-03-17T23:22:17.950Z,11.32
2023-03-17T23:24:20.646Z,13.02
2023-03-17T23:26:23.207Z,11.63
2023-03-17T23:28:25.883Z,12.43
2023-03-17T23:30:28.184Z,12.75
2023-03-17T23:32:30.689Z,11.50
2023-03-17T23:34:33.198Z,12.68
2023-03-17T23:36:40.340Z,13.18
2023-03-17T23:40:48.228Z,12.02
2023-03-17T23:42:51.137Z,12.50
2023-03-17T23:44:53.597Z,13.35
2023-03-17T23:46:57.379Z,13.07
2023-03-17T23:49:00.427Z,13.30
2023-03-17T23:51:03.360Z,12.88
2023-03-17T23:53:06.281Z,13.07
2023-03-17T23:55:10.300Z,13.98
2023-03-17T23:57:13.635Z,13.45
2023-03-17T23:59:16.637Z,15.20
